»·PEaware :: AAL2829 KJFK-KPHX

AAL2829 :: KJFK-KPHX

FLIGHT INFORMATION

Flight Status: Arrived
Operator:
American Airlines
More flights by this operator :: More flights under this callsign
Pilot: Chris O. (30060)
Aircraft: Unknown
(B38M)
More flights by this aircraft type
Origin: KJFK Kennedy Intl
United States
Destination: KPHX Phoenix Sky Harbor Intl
United States
More flights between these airports :: More routes between these airports
Route: DEEZZ5 CANDR J60 DANNR RAV J64 PUB ALS J102 GUP EAGUL6
File this flight plan on PilotEdge
Remarks: RMK / SIMBRIEF
Altitude:
(Current/Filed)
34,000ft
Speed:
(Current/Filed)
454kts
Departed: 21-Aug-22 07:29 AM
Arrived: 21-Aug-22 12:22 PM
Distance/Time
Traveled:
1866nm/4:53
Distance/Time
To Go:
Arrived

Flight Plot

Page will automatically refresh every two minutes.

Flight plan parsing failed; only flown route is shown


Map Options




Map Legend


Flown Route
Filed Route
Departure Airport
Arrival Airport
Navaid (VOR, NDB)
Fix

Horizontal Profiles

Position Reports

Time Latitude Longitude Heading Altitude Ground
Speed
21-Aug-22 07:24 40.640151 -73.793817 116 13ft 15kts
21-Aug-22 07:25 40.636204 -73.785051 121 10ft 35kts
21-Aug-22 07:26 40.634965 -73.777155 31 13ft 27kts
21-Aug-22 07:27 40.645128 -73.769877 13 14ft 27kts
21-Aug-22 07:28 40.644605 -73.767901 210 14ft 43kts
21-Aug-22 07:29 40.614957 -73.792074 212 319ft 169kts
21-Aug-22 07:30 40.579043 -73.839074 287 2246ft 215kts
21-Aug-22 07:31 40.629936 -73.860097 8 3944ft 257kts
21-Aug-22 07:32 40.697282 -73.848785 8 4210ft 272kts
21-Aug-22 07:33 40.764117 -73.837472 8 4223ft 265kts
21-Aug-22 07:34 40.832641 -73.825824 8 5942ft 285kts
21-Aug-22 07:35 40.908734 -73.812878 7 8235ft 294kts
21-Aug-22 07:36 40.987222 -73.799501 7 10635ft 305kts
21-Aug-22 07:37 41.080030 -73.789550 339 13413ft 318kts
21-Aug-22 07:38 41.135802 -73.881484 277 16096ft 353kts
21-Aug-22 07:39 41.152246 -74.014153 280 18555ft 399kts
21-Aug-22 07:40 41.173915 -74.162050 275 21024ft 426kts
21-Aug-22 07:41 41.188724 -74.318719 275 23487ft 441kts
21-Aug-22 07:42 41.183224 -74.478276 252 25970ft 446kts
21-Aug-22 07:43 41.126638 -74.623523 238 28444ft 452kts
21-Aug-22 07:44 41.063025 -74.761720 237 31740ft 441kts
21-Aug-22 07:45 41.001096 -74.895752 237 34101ft 425kts
21-Aug-22 07:46 40.954536 -75.029526 249 34247ft 403kts
21-Aug-22 07:47 40.922136 -75.168948 250 34201ft 403kts
21-Aug-22 07:48 40.891135 -75.301729 249 34265ft 408kts
21-Aug-22 07:49 40.858795 -75.439403 249 34243ft 408kts
21-Aug-22 07:50 40.824512 -75.584443 249 34209ft 407kts
21-Aug-22 07:51 40.791869 -75.721531 249 34213ft 408kts
21-Aug-22 07:52 40.758033 -75.862453 249 34214ft 411kts
21-Aug-22 07:53 40.723910 -76.003832 249 34212ft 410kts
21-Aug-22 07:54 40.689616 -76.145138 249 34210ft 410kts
21-Aug-22 07:55 40.654085 -76.283022 245 34221ft 410kts
21-Aug-22 07:56 40.611161 -76.419066 245 34160ft 409kts
21-Aug-22 07:57 40.568855 -76.554598 250 34156ft 410kts
21-Aug-22 07:58 40.562449 -76.702014 271 34171ft 421kts
21-Aug-22 07:59 40.575781 -76.850952 272 34177ft 423kts
21-Aug-22 08:00 40.589203 -77.002163 272 34162ft 423kts
21-Aug-22 08:01 40.602298 -77.152108 272 34166ft 423kts
21-Aug-22 08:02 40.615296 -77.303224 272 34151ft 420kts
21-Aug-22 08:03 40.628151 -77.455034 272 34153ft 420kts
21-Aug-22 08:04 40.640752 -77.606333 272 34153ft 420kts
21-Aug-22 08:05 40.653001 -77.756149 271 34158ft 419kts
21-Aug-22 08:06 40.664648 -77.901319 271 34160ft 416kts
21-Aug-22 08:07 40.675606 -78.040177 271 34156ft 416kts
21-Aug-22 08:08 40.686280 -78.177374 271 34155ft 416kts
21-Aug-22 08:09 40.697351 -78.321967 271 34176ft 421kts
21-Aug-22 08:10 40.708448 -78.469013 271 34185ft 419kts
21-Aug-22 08:11 40.719459 -78.617316 271 34179ft 419kts
21-Aug-22 08:12 40.731046 -78.777103 270 34190ft 422kts
21-Aug-22 08:13 40.741909 -78.930233 271 34197ft 425kts
21-Aug-22 08:14 40.752536 -79.082545 271 34191ft 428kts
21-Aug-22 08:15 40.763120 -79.237172 271 34193ft 431kts
21-Aug-22 08:16 40.773537 -79.392272 271 34191ft 434kts
21-Aug-22 08:17 40.783872 -79.549065 271 34149ft 434kts
21-Aug-22 08:18 40.793981 -79.705803 271 34150ft 433kts
21-Aug-22 08:19 40.803769 -79.861499 271 34148ft 434kts
21-Aug-22 08:20 40.813410 -80.017985 271 34148ft 434kts
21-Aug-22 08:21 40.822702 -80.172067 271 34118ft 434kts
21-Aug-22 08:22 40.831128 -80.325400 270 34132ft 434kts
21-Aug-22 08:23 40.839049 -80.480778 270 34139ft 433kts
21-Aug-22 08:24 40.846791 -80.636619 270 34137ft 433kts
21-Aug-22 08:25 40.854180 -80.790191 270 34088ft 431kts
21-Aug-22 08:26 40.861229 -80.940850 270 34076ft 432kts
21-Aug-22 08:27 40.868416 -81.098705 270 34101ft 431kts
21-Aug-22 08:28 40.875372 -81.255288 270 34101ft 431kts
21-Aug-22 08:29 40.882122 -81.411375 270 34101ft 431kts
21-Aug-22 08:30 40.888706 -81.568351 270 34100ft 431kts
21-Aug-22 08:31 40.894985 -81.723688 269 34103ft 431kts
21-Aug-22 08:32 40.900959 -81.879183 269 34103ft 429kts
21-Aug-22 08:33 40.906793 -82.036332 269 34103ft 430kts
21-Aug-22 08:35 40.912418 -82.193247 269 34102ft 430kts
21-Aug-22 08:36 40.917838 -82.350283 269 34092ft 432kts
21-Aug-22 08:37 40.923108 -82.508603 269 34092ft 432kts
21-Aug-22 08:38 40.928170 -82.666545 268 34093ft 432kts
21-Aug-22 08:39 40.932954 -82.824115 269 34094ft 431kts
21-Aug-22 08:40 40.937524 -82.981305 269 34080ft 432kts
21-Aug-22 08:41 40.941924 -83.139686 269 34061ft 431kts
21-Aug-22 08:42 40.946103 -83.297674 269 34045ft 433kts
21-Aug-22 08:43 40.950095 -83.456381 269 34046ft 432kts
21-Aug-22 08:44 40.953862 -83.614451 269 34046ft 432kts
21-Aug-22 08:45 40.957383 -83.772651 268 34048ft 432kts
21-Aug-22 08:46 40.960657 -83.929763 269 34055ft 430kts
21-Aug-22 08:47 40.963741 -84.087543 269 34057ft 430kts
21-Aug-22 08:48 40.966609 -84.244750 269 34056ft 430kts
21-Aug-22 08:49 40.969259 -84.401922 270 34053ft 428kts
21-Aug-22 08:50 40.971703 -84.558864 270 34053ft 428kts
21-Aug-22 08:51 40.973895 -84.713749 269 34055ft 428kts
21-Aug-22 08:52 40.975829 -84.868026 270 34056ft 428kts
21-Aug-22 08:53 40.977375 -85.003740 270 34054ft 427kts
21-Aug-22 08:54 40.978965 -85.159442 270 34054ft 427kts
21-Aug-22 08:55 40.995567 -85.313949 280 34046ft 426kts
21-Aug-22 08:56 41.016441 -85.467462 280 34049ft 427kts
21-Aug-22 08:57 41.037018 -85.621458 280 34033ft 427kts
21-Aug-22 08:58 41.056904 -85.772468 279 34068ft 426kts
21-Aug-22 08:59 41.076883 -85.925985 279 34063ft 426kts
21-Aug-22 09:00 41.096609 -86.079136 279 34062ft 426kts
21-Aug-22 09:01 41.115789 -86.229631 279 34063ft 426kts
21-Aug-22 09:02 41.135028 -86.382186 279 34063ft 423kts
21-Aug-22 09:02 41.150979 -86.509908 279 34061ft 424kts
21-Aug-22 09:04 41.162238 -86.687008 270 34064ft 424kts
21-Aug-22 09:05 41.163760 -86.841830 271 34059ft 424kts
21-Aug-22 09:06 41.165206 -86.996473 272 34065ft 426kts
21-Aug-22 09:07 41.166498 -87.152099 272 34075ft 426kts
21-Aug-22 09:07 41.167435 -87.281831 272 34074ft 424kts
21-Aug-22 09:08 41.168383 -87.436671 273 34073ft 425kts
21-Aug-22 09:09 41.169122 -87.591584 273 34072ft 424kts
21-Aug-22 09:11 41.169685 -87.771715 273 34074ft 425kts
21-Aug-22 09:12 41.169934 -87.927106 273 34076ft 426kts
21-Aug-22 09:12 41.169997 -88.056515 273 34075ft 426kts
21-Aug-22 09:13 41.169896 -88.212204 273 34074ft 426kts
21-Aug-22 09:14 41.169592 -88.368345 273 34073ft 425kts
21-Aug-22 09:15 41.169098 -88.524157 273 34072ft 425kts
21-Aug-22 09:17 41.168249 -88.705777 272 34027ft 426kts
21-Aug-22 09:17 41.167422 -88.834738 272 34086ft 424kts
21-Aug-22 09:18 41.166256 -88.990609 272 34094ft 424kts
21-Aug-22 09:19 41.164917 -89.144355 272 34093ft 424kts
21-Aug-22 09:20 41.163366 -89.299824 272 34091ft 423kts
21-Aug-22 09:21 41.161631 -89.454351 272 34091ft 424kts
21-Aug-22 09:22 41.158504 -89.609810 266 34090ft 426kts
21-Aug-22 09:23 41.141083 -89.763696 264 34090ft 427kts
21-Aug-22 09:24 41.123824 -89.918158 265 34096ft 427kts
21-Aug-22 09:25 41.106438 -90.072366 265 34120ft 428kts
21-Aug-22 09:26 41.088905 -90.226266 265 34121ft 427kts
21-Aug-22 09:27 41.071187 -90.380105 265 34119ft 428kts
21-Aug-22 09:28 41.053316 -90.533552 265 34119ft 428kts
21-Aug-22 09:29 41.035234 -90.687029 264 34125ft 428kts
21-Aug-22 09:30 41.016933 -90.840155 264 34121ft 430kts
21-Aug-22 09:31 40.998209 -90.995142 264 34131ft 429kts
21-Aug-22 09:32 40.979282 -91.150138 264 34130ft 429kts
21-Aug-22 09:33 40.960298 -91.303925 263 34151ft 429kts
21-Aug-22 09:34 40.941231 -91.456727 263 34147ft 429kts
21-Aug-22 09:35 40.921847 -91.610421 263 34145ft 429kts
21-Aug-22 09:36 40.902402 -91.762644 263 34150ft 430kts
21-Aug-22 09:37 40.882808 -91.914254 263 34145ft 428kts
21-Aug-22 09:38 40.863007 -92.065993 263 34144ft 428kts
21-Aug-22 09:39 40.842806 -92.219244 263 34143ft 428kts
21-Aug-22 09:40 40.822410 -92.372388 263 34150ft 429kts
21-Aug-22 09:41 40.801658 -92.526629 263 34151ft 428kts
21-Aug-22 09:42 40.781105 -92.677838 262 34156ft 429kts
21-Aug-22 09:43 40.759803 -92.832536 262 34154ft 429kts
21-Aug-22 09:44 40.738529 -92.985447 262 34164ft 424kts
21-Aug-22 09:45 40.717118 -93.137986 262 34162ft 426kts
21-Aug-22 09:46 40.695428 -93.291058 262 34162ft 426kts
21-Aug-22 09:47 40.673640 -93.443381 262 34161ft 426kts
21-Aug-22 09:48 40.651563 -93.596278 262 34160ft 426kts
21-Aug-22 09:49 40.629218 -93.749303 261 34166ft 426kts
21-Aug-22 09:50 40.606691 -93.901911 261 34165ft 426kts
21-Aug-22 09:51 40.582802 -94.054293 260 34164ft 426kts
21-Aug-22 09:52 40.557190 -94.206259 260 34163ft 426kts
21-Aug-22 09:53 40.531375 -94.358330 259 34162ft 427kts
21-Aug-22 09:54 40.505439 -94.509972 259 34169ft 427kts
21-Aug-22 09:55 40.479304 -94.661610 259 34172ft 427kts
21-Aug-22 09:56 40.452875 -94.813372 259 34174ft 426kts
21-Aug-22 09:57 40.426299 -94.964872 259 34174ft 427kts
21-Aug-22 09:58 40.399628 -95.115799 259 34173ft 427kts
21-Aug-22 09:59 40.372717 -95.266935 259 34173ft 426kts
21-Aug-22 10:00 40.345840 -95.416711 259 34166ft 422kts
21-Aug-22 10:01 40.318771 -95.566477 259 34170ft 423kts
21-Aug-22 10:02 40.291646 -95.715298 259 34175ft 423kts
21-Aug-22 10:03 40.264254 -95.864082 259 34176ft 419kts
21-Aug-22 10:04 40.236916 -96.011547 259 34175ft 411kts
21-Aug-22 10:05 40.209757 -96.157077 259 34174ft 413kts
21-Aug-22 10:06 40.180433 -96.302274 257 34202ft 413kts
21-Aug-22 10:07 40.149293 -96.445965 257 34198ft 413kts
21-Aug-22 10:08 40.117946 -96.589866 257 34197ft 413kts
21-Aug-22 10:09 40.086352 -96.733858 256 34206ft 413kts
21-Aug-22 10:10 40.054606 -96.877531 256 34205ft 412kts
21-Aug-22 10:11 40.022904 -97.020338 256 34194ft 412kts
21-Aug-22 10:12 39.990914 -97.163667 256 34193ft 412kts
21-Aug-22 10:13 39.958755 -97.306943 256 34209ft 411kts
21-Aug-22 10:14 39.926523 -97.449725 256 34208ft 411kts
21-Aug-22 10:15 39.894133 -97.592370 256 34193ft 412kts
21-Aug-22 10:16 39.861597 -97.734579 256 34204ft 412kts
21-Aug-22 10:17 39.828793 -97.876922 256 34191ft 411kts
21-Aug-22 10:18 39.795875 -98.019054 256 34191ft 412kts
21-Aug-22 10:19 39.762817 -98.161021 256 34190ft 411kts
21-Aug-22 10:20 39.729618 -98.302786 255 34206ft 408kts
21-Aug-22 10:21 39.696425 -98.443776 255 34208ft 409kts
21-Aug-22 10:22 39.663078 -98.584618 255 34205ft 409kts
21-Aug-22 10:23 39.629538 -98.725249 255 34213ft 409kts
21-Aug-22 10:24 39.595747 -98.865848 255 34211ft 408kts
21-Aug-22 10:25 39.561884 -99.006059 255 34210ft 408kts
21-Aug-22 10:26 39.527814 -99.146374 255 34209ft 408kts
21-Aug-22 10:27 39.493565 -99.286681 254 34209ft 410kts
21-Aug-22 10:28 39.459073 -99.427204 254 34206ft 410kts
21-Aug-22 10:29 39.424513 -99.567232 254 34205ft 410kts
21-Aug-22 10:30 39.389623 -99.707660 254 34211ft 410kts
21-Aug-22 10:31 39.354586 -99.847554 254 34212ft 411kts
21-Aug-22 10:32 39.319357 -99.987487 254 34211ft 410kts
21-Aug-22 10:33 39.283880 -100.127666 254 34209ft 410kts
21-Aug-22 10:34 39.249536 -100.267735 256 34209ft 410kts
21-Aug-22 10:35 39.219857 -100.409838 256 34222ft 411kts
21-Aug-22 10:36 39.189968 -100.551880 256 34224ft 411kts
21-Aug-22 10:37 39.160008 -100.693221 256 34232ft 411kts
21-Aug-22 10:38 39.129674 -100.834929 255 34231ft 408kts
21-Aug-22 10:39 39.099428 -100.975403 255 34229ft 409kts
21-Aug-22 10:40 39.068849 -101.116564 255 34227ft 409kts
21-Aug-22 10:41 39.038259 -101.256931 255 34226ft 409kts
21-Aug-22 10:42 39.007496 -101.397235 255 34234ft 408kts
21-Aug-22 10:43 38.976552 -101.537523 255 34233ft 408kts
21-Aug-22 10:44 38.945464 -101.677563 255 34241ft 408kts
21-Aug-22 10:45 38.914009 -101.817936 254 34239ft 409kts
21-Aug-22 10:46 38.882546 -101.957637 255 34265ft 409kts
21-Aug-22 10:47 38.850789 -102.097908 255 34265ft 409kts
21-Aug-22 10:48 38.819067 -102.237268 255 34263ft 409kts
21-Aug-22 10:49 38.786935 -102.377651 255 34261ft 410kts
21-Aug-22 10:50 38.754810 -102.517213 255 34260ft 410kts
21-Aug-22 10:51 38.722685 -102.655988 254 34260ft 406kts
21-Aug-22 10:52 38.690216 -102.794981 254 34236ft 408kts
21-Aug-22 10:53 38.657700 -102.933438 254 34238ft 408kts
21-Aug-22 10:54 38.624914 -103.072337 254 34237ft 408kts
21-Aug-22 10:55 38.592118 -103.210548 254 34259ft 408kts
21-Aug-22 10:56 38.558989 -103.349419 254 34263ft 408kts
21-Aug-22 10:57 38.525805 -103.487771 254 34261ft 408kts
21-Aug-22 10:58 38.492533 -103.625727 254 34259ft 408kts
21-Aug-22 10:59 38.458933 -103.763909 253 34267ft 408kts
21-Aug-22 11:00 38.425256 -103.901535 253 34266ft 408kts
21-Aug-22 11:01 38.391394 -104.039225 253 34275ft 408kts
21-Aug-22 11:02 38.357299 -104.177147 253 34273ft 408kts
21-Aug-22 11:03 38.323201 -104.314349 253 34271ft 408kts
21-Aug-22 11:04 38.280665 -104.447565 236 34271ft 412kts
21-Aug-22 11:05 38.207463 -104.559731 232 34251ft 415kts
21-Aug-22 11:06 38.132999 -104.670732 231 34261ft 415kts
21-Aug-22 11:07 38.058037 -104.781919 231 34258ft 416kts
21-Aug-22 11:08 37.983355 -104.892351 232 34338ft 416kts
21-Aug-22 11:09 37.908659 -105.002464 232 34338ft 416kts
21-Aug-22 11:10 37.834570 -105.111341 232 34338ft 416kts
21-Aug-22 11:11 37.760340 -105.220082 232 34475ft 414kts
21-Aug-22 11:12 37.686745 -105.327553 232 34547ft 413kts
21-Aug-22 11:13 37.612711 -105.435340 232 34544ft 413kts
21-Aug-22 11:14 37.538433 -105.543136 232 34544ft 413kts
21-Aug-22 11:15 37.463393 -105.651681 231 34375ft 413kts
21-Aug-22 11:16 37.387826 -105.760456 231 34376ft 415kts
21-Aug-22 11:17 37.314948 -105.872754 235 34389ft 428kts
21-Aug-22 11:18 37.245820 -105.990794 235 34380ft 413kts
21-Aug-22 11:19 37.177867 -106.106254 236 34375ft 413kts
21-Aug-22 11:20 37.109638 -106.221724 236 34372ft 413kts
21-Aug-22 11:21 37.041375 -106.336836 235 34371ft 414kts
21-Aug-22 11:22 36.976837 -106.445308 235 34568ft 413kts
21-Aug-22 11:23 36.909440 -106.558243 235 34559ft 414kts
21-Aug-22 11:24 36.842891 -106.669384 235 34395ft 413kts
21-Aug-22 11:25 36.774435 -106.783149 235 34395ft 413kts
21-Aug-22 11:26 36.707080 -106.894706 235 34395ft 408kts
21-Aug-22 11:27 36.640009 -107.005476 235 34393ft 410kts
21-Aug-22 11:28 36.572374 -107.116832 235 34392ft 409kts
21-Aug-22 11:29 36.504773 -107.227784 235 34391ft 409kts
21-Aug-22 11:30 36.436184 -107.340014 235 34308ft 413kts
21-Aug-22 11:31 36.371273 -107.445879 235 34259ft 413kts
21-Aug-22 11:32 36.301885 -107.558700 235 34259ft 413kts
21-Aug-22 11:33 36.232340 -107.671401 234 34270ft 411kts
21-Aug-22 11:34 36.163106 -107.783053 234 34265ft 410kts
21-Aug-22 11:35 36.093766 -107.894566 234 34264ft 409kts
21-Aug-22 11:36 36.029584 -107.997490 234 34262ft 409kts
21-Aug-22 11:37 35.960001 -108.108756 234 34339ft 409kts
21-Aug-22 11:38 35.890625 -108.219363 234 34347ft 409kts
21-Aug-22 11:39 35.820873 -108.330232 234 34345ft 410kts
21-Aug-22 11:40 35.751502 -108.440158 234 34344ft 410kts
21-Aug-22 11:41 35.681591 -108.550602 233 34343ft 410kts
21-Aug-22 11:42 35.611635 -108.660772 233 34346ft 410kts
21-Aug-22 11:43 35.541315 -108.770966 233 34347ft 411kts
21-Aug-22 11:44 35.470578 -108.881160 230 34346ft 412kts
21-Aug-22 11:45 35.391914 -108.983468 228 34348ft 413kts
21-Aug-22 11:46 35.313002 -109.084919 228 34346ft 413kts
21-Aug-22 11:47 35.234005 -109.186486 227 34352ft 413kts
21-Aug-22 11:48 35.155283 -109.287512 227 34362ft 410kts
21-Aug-22 11:50 35.076933 -109.387837 227 34361ft 411kts
21-Aug-22 11:51 35.026107 -109.452783 227 34359ft 411kts
21-Aug-22 11:52 34.947291 -109.553273 227 34359ft 411kts
21-Aug-22 11:53 34.868744 -109.653142 227 34322ft 412kts
21-Aug-22 11:54 34.789892 -109.753255 227 34332ft 411kts
21-Aug-22 11:55 34.711424 -109.857456 235 34337ft 432kts
21-Aug-22 11:56 34.658663 -109.987458 245 34329ft 429kts
21-Aug-22 11:57 34.609488 -110.119724 245 32813ft 428kts
21-Aug-22 11:58 34.560933 -110.249521 244 30911ft 421kts
21-Aug-22 11:59 34.512612 -110.378096 244 28994ft 416kts
21-Aug-22 12:00 34.464875 -110.504540 245 27084ft 413kts
21-Aug-22 12:01 34.417232 -110.630174 246 25169ft 410kts
21-Aug-22 12:02 34.370439 -110.752984 245 24343ft 390kts
21-Aug-22 12:03 34.304925 -110.860607 227 22644ft 406kts
21-Aug-22 12:04 34.227588 -110.960211 228 20686ft 408kts
21-Aug-22 12:05 34.150516 -111.059350 227 18890ft 405kts
21-Aug-22 12:06 34.073943 -111.157642 227 17247ft 397kts
21-Aug-22 12:07 34.002880 -111.248595 228 17225ft 351kts
21-Aug-22 12:08 33.939260 -111.329850 227 17233ft 321kts
21-Aug-22 12:09 33.876620 -111.411152 235 16985ft 339kts
21-Aug-22 12:10 33.825888 -111.506352 242 15674ft 344kts
21-Aug-22 12:11 33.773153 -111.606981 238 13707ft 366kts
21-Aug-22 12:12 33.718191 -111.711063 238 11987ft 371kts
21-Aug-22 12:13 33.662981 -111.815451 238 10301ft 372kts
21-Aug-22 12:14 33.610469 -111.914165 238 9761ft 333kts
21-Aug-22 12:14 33.570103 -111.989914 238 8385ft 316kts
21-Aug-22 12:16 33.525623 -112.092349 265 6976ft 277kts
21-Aug-22 12:17 33.491466 -112.164924 220 5409ft 247kts
21-Aug-22 12:18 33.435899 -112.177911 134 3448ft 231kts
21-Aug-22 12:19 33.437687 -112.115359 70 2911ft 193kts
21-Aug-22 12:19 33.440738 -112.071882 92 2165ft 169kts
21-Aug-22 12:20 33.440867 -112.026169 92 1154ft 146kts
21-Aug-22 12:22 33.439770 -112.004658 178 1129ft 4kts
21-Aug-22 12:23 33.439770 -112.004658 178 1129ft 4kts

Navigation Log

Ident Type
Flight plan parsing failed, navigation log unavailable